KSNAKHND

Guest
Details From KSNA - Orange County - John Wayne
To KHND - Henderson Executive
Flight Number -
Tags generated
Created
Modified
Stats Distance 193 nm / 357 km
Max Altitude 21,900 ft / 6,675 m
Waypoints 3
Social Downloads 1
Likes 0
Share VATSIM

Download

Looking for another format? Having issues loading an existing format? Contact us
Advertisement - Login to hide

Notes

Basic altitude profile: - Ascent Rate: 2500ft/min - Ascent Speed: 250kts - Cruise Altitude: 35000ft - Cruise Speed: 420kts - Descent Rate: 1500ft/min - Descent Speed: 250kts Options: - Use NATs: yes - Use PACOTS: yes - Use low airways: yes - Use high airways: yes

Route

KSNA BULGY KHND

ID Type Via Altitude Latitude Longitude Leg Dist Tot Dist Heading (true) Name
O KSNA APT - 0 ft / 0 m 33.67611˚ -117.86764˚ - 0 nm - Orange County - John Wayne
BULGY FIX - 21,900 ft / 6,675 m 34.66782˚ -116.62194˚ 85 nm 85 nm 46° / 46° -
O KHND APT - 0 ft / 0 m 35.97299˚ -115.13423˚ 107 nm 192 nm 42° / 43° Henderson Executive

Altitude Profile

Advertisement - Login to hide

Weather


0- 5 10 15 20 25 30 35+ Temperature / ° C

Clouds and Precipitation
Forecast for 2018-05-25 12:00 UTC. Updated 2 hours ago

Ground ~20,000 ft ~40,000 ft Winds

KSNA

Details ICAO KSNA (SNA)
Name Orange County - John Wayne
Region United States
Timezone America/Los_Angeles (UTC-7.0)
Stats Elevation 56 ft / 17 m (AMSL)
Location 33.676112° -117.867636°
Runways 2
Magnetic Variation 11.807° E

METAR

KSNA 251053Z AUTO 27003KT 10SM FEW032 OVC041 16/12 A3009 RMK AO2 SLP187 T01610117

Decode

TAF

KSNA 250706Z 2507/2606 VRB04KT P6SM SCT025 OVC035 FM251900 23010KT P6SM SCT035 FM260300 VRB04KT P6SM BKN015

Decode

Departure Runways

ID Width Length Bearing (true) Bearing (mag) Surface Threshold Offset Overrun Length
01L 151 ft / 46 m 5,711 ft / 1,741 m 27.81° 16.00° Asphalt 0 ft / 0 m 1,050 ft / 320 m
01R 75 ft / 23 m 2,892 ft / 881 m 27.80° 15.99° Asphalt 0 ft / 0 m 400 ft / 122 m
19L 75 ft / 23 m 2,892 ft / 881 m 207.80° 195.99° Asphalt 0 ft / 0 m 151 ft / 46 m
19R 151 ft / 46 m 5,711 ft / 1,741 m 207.81° 196.00° Asphalt 0 ft / 0 m 194 ft / 59 m

KHND

Details ICAO KHND (HSH)
Name Henderson Executive
Region United States
Timezone America/Los_Angeles (UTC-7.0)
Stats Elevation 2,492 ft / 760 m (AMSL)
Location 35.972988° -115.134228°
Runways 2
Magnetic Variation 11.589° E

METAR

KHND 251056Z AUTO 19006KT 10SM CLR 21/06 A2994 RMK AO2 SLP114 T02110061 $

Decode

TAF

TAF KHND 250520Z 2506/2606 20011KT P6SM SKC FM251600 20018G28KT P6SM SKC

Decode

Destination Runways

ID Width Length Bearing (true) Bearing (mag) Surface Threshold Offset Overrun Length
17L 75 ft / 23 m 5,012 ft / 1,528 m 180.58° 168.99° Asphalt 0 ft / 0 m 151 ft / 46 m
17R 98 ft / 30 m 6,515 ft / 1,986 m 180.57° 168.98° Asphalt 0 ft / 0 m 200 ft / 61 m
35L 98 ft / 30 m 6,515 ft / 1,986 m 0.57° 348.98° Asphalt 0 ft / 0 m 200 ft / 61 m
35R 75 ft / 23 m 5,012 ft / 1,528 m 0.58° 348.99° Asphalt 0 ft / 0 m 151 ft / 46 m

Popular Alternatives